sensor_id;sensor_type;location;lat;lon;timestamp;pressure;altitude;pressure_sealevel;temperature;humidity
33949;BME280;20229;49.856;19.030;2023-01-29T00:01:28;102546.75;;;0.27;86.14
33949;BME280;20229;49.856;19.030;2023-01-29T00:06:52;102540.43;;;0.23;85.84
33949;BME280;20229;49.856;19.030;2023-01-29T00:11:55;102545.80;;;0.24;85.49
33949;BME280;20229;49.856;19.030;2023-01-29T00:17:17;102549.38;;;0.22;85.65
33949;BME280;20229;49.856;19.030;2023-01-29T00:22:21;102548.48;;;0.23;85.46
33949;BME280;20229;49.856;19.030;2023-01-29T00:27:43;102550.22;;;0.19;85.76
33949;BME280;20229;49.856;19.030;2023-01-29T00:32:46;102552.91;;;0.21;85.53
33949;BME280;20229;49.856;19.030;2023-01-29T00:38:09;102568.91;;;0.13;85.61
33949;BME280;20229;49.856;19.030;2023-01-29T00:43:12;102561.73;;;0.11;85.51
33949;BME280;20229;49.856;19.030;2023-01-29T00:48:35;102574.11;;;0.03;85.84
33949;BME280;20229;49.856;19.030;2023-01-29T00:53:38;102577.73;;;0.05;86.03
33949;BME280;20229;49.856;19.030;2023-01-29T00:59:01;102584.79;;;-0.02;85.95
33949;BME280;20229;49.856;19.030;2023-01-29T01:04:05;102581.20;;;-0.03;85.90
33949;BME280;20229;49.856;19.030;2023-01-29T01:09:26;102581.09;;;-0.07;86.06
33949;BME280;20229;49.856;19.030;2023-01-29T01:14:42;102585.62;;;-0.05;86.08
33949;BME280;20229;49.856;19.030;2023-01-29T01:19:52;102585.56;;;-0.09;86.05
33949;BME280;20229;49.856;19.030;2023-01-29T01:24:55;102597.18;;;-0.10;86.13
33949;BME280;20229;49.856;19.030;2023-01-29T01:30:18;102597.96;;;-0.16;86.44
33949;BME280;20229;49.856;19.030;2023-01-29T01:35:21;102599.76;;;-0.15;86.08
33949;BME280;20229;49.856;19.030;2023-01-29T01:40:45;102605.88;;;-0.22;86.28
33949;BME280;20229;49.856;19.030;2023-01-29T01:45:48;102606.79;;;-0.21;86.31
33949;BME280;20229;49.856;19.030;2023-01-29T01:51:09;102612.98;;;-0.27;86.52
33949;BME280;20229;49.856;19.030;2023-01-29T01:56:15;102612.98;;;-0.27;86.65
33949;BME280;20229;49.856;19.030;2023-01-29T02:01:35;102612.91;;;-0.30;86.47
33949;BME280;20229;49.856;19.030;2023-01-29T02:06:43;102600.37;;;-0.31;86.12
33949;BME280;20229;49.856;19.030;2023-01-29T02:12:07;102603.82;;;-0.38;86.17
33949;BME280;20229;49.856;19.030;2023-01-29T02:17:13;102589.52;;;-0.36;86.34
33949;BME280;20229;49.856;19.030;2023-01-29T02:38:22;102562.43;;;-0.51;85.60
33949;BME280;20229;49.856;19.030;2023-01-29T02:48:53;102564.02;;;-0.61;85.32
33949;BME280;20229;49.856;19.030;2023-01-29T02:54:05;102554.95;;;-0.69;85.11
33949;BME280;20229;49.856;19.030;2023-01-29T02:59:19;102551.30;;;-0.71;84.94
33949;BME280;20229;49.856;19.030;2023-01-29T03:04:28;102558.36;;;-0.76;84.39
33949;BME280;20229;49.856;19.030;2023-01-29T03:09:35;102565.47;;;-0.78;84.24
33949;BME280;20229;49.856;19.030;2023-01-29T03:14:40;102573.48;;;-0.81;84.00
33949;BME280;20229;49.856;19.030;2023-01-29T03:19:57;102582.37;;;-0.82;83.46
33949;BME280;20229;49.856;19.030;2023-01-29T03:25:01;102590.28;;;-0.88;82.95
33949;BME280;20229;49.856;19.030;2023-01-29T03:30:19;102600.96;;;-0.91;82.73
33949;BME280;20229;49.856;19.030;2023-01-29T03:35:41;102600.83;;;-0.98;81.99
33949;BME280;20229;49.856;19.030;2023-01-29T03:40:52;102607.97;;;-0.98;82.35
33949;BME280;20229;49.856;19.030;2023-01-29T03:51:24;102599.79;;;-1.04;79.99
33949;BME280;20229;49.856;19.030;2023-01-29T04:01:54;102598.76;;;-1.11;80.19
33949;BME280;20229;49.856;19.030;2023-01-29T04:06:56;102585.20;;;-1.18;78.59
33949;BME280;20229;49.856;19.030;2023-01-29T04:12:07;102595.02;;;-1.19;78.81
33949;BME280;20229;49.856;19.030;2023-01-29T04:17:15;102575.22;;;-1.24;78.49
33949;BME280;20229;49.856;19.030;2023-01-29T04:22:28;102563.67;;;-1.23;78.76
33949;BME280;20229;49.856;19.030;2023-01-29T04:33:09;102572.37;;;-1.32;78.16
33949;BME280;20229;49.856;19.030;2023-01-29T04:38:17;102560.70;;;-1.35;78.00
33949;BME280;20229;49.856;19.030;2023-01-29T04:43:29;102548.26;;;-1.33;77.80
33949;BME280;20229;49.856;19.030;2023-01-29T04:48:42;102551.77;;;-1.34;77.94
33949;BME280;20229;49.856;19.030;2023-01-29T04:53:54;102544.69;;;-1.32;78.26
33949;BME280;20229;49.856;19.030;2023-01-29T04:59:04;102529.45;;;-1.35;77.58
33949;BME280;20229;49.856;19.030;2023-01-29T05:04:13;102523.18;;;-1.35;77.46
33949;BME280;20229;49.856;19.030;2023-01-29T05:09:18;102529.34;;;-1.41;77.59
33949;BME280;20229;49.856;19.030;2023-01-29T05:14:24;102509.78;;;-1.37;77.36
33949;BME280;20229;49.856;19.030;2023-01-29T05:19:42;102508.80;;;-1.40;77.50
33949;BME280;20229;49.856;19.030;2023-01-29T05:24:45;102510.61;;;-1.39;76.60
33949;BME280;20229;49.856;19.030;2023-01-29T05:30:08;102521.25;;;-1.42;76.18
33949;BME280;20229;49.856;19.030;2023-01-29T05:35:12;102523.98;;;-1.41;76.35
33949;BME280;20229;49.856;19.030;2023-01-29T05:40:33;102525.71;;;-1.43;76.24
33949;BME280;20229;49.856;19.030;2023-01-29T05:45:36;102535.59;;;-1.40;75.85
33949;BME280;20229;49.856;19.030;2023-01-29T05:51:02;102539.08;;;-1.45;76.67
33949;BME280;20229;49.856;19.030;2023-01-29T05:56:06;102547.16;;;-1.41;76.42
33949;BME280;20229;49.856;19.030;2023-01-29T06:01:25;102540.78;;;-1.48;75.55
33949;BME280;20229;49.856;19.030;2023-01-29T06:06:28;102533.73;;;-1.45;75.97
33949;BME280;20229;49.856;19.030;2023-01-29T06:11:50;102538.13;;;-1.47;76.09
33949;BME280;20229;49.856;19.030;2023-01-29T06:16:53;102545.34;;;-1.44;75.95
33949;BME280;20229;49.856;19.030;2023-01-29T06:22:16;102559.53;;;-1.48;75.67
33949;BME280;20229;49.856;19.030;2023-01-29T06:27:19;102557.77;;;-1.46;75.74
33949;BME280;20229;49.856;19.030;2023-01-29T06:32:41;102563.95;;;-1.49;75.89
33949;BME280;20229;49.856;19.030;2023-01-29T06:37:44;102559.57;;;-1.45;75.68
33949;BME280;20229;49.856;19.030;2023-01-29T06:43:07;102575.56;;;-1.50;75.93
33949;BME280;20229;49.856;19.030;2023-01-29T06:48:10;102571.23;;;-1.45;75.99
33949;BME280;20229;49.856;19.030;2023-01-29T06:53:34;102576.59;;;-1.45;75.87
33949;BME280;20229;49.856;19.030;2023-01-29T06:58:38;102571.27;;;-1.41;75.80
33949;BME280;20229;49.856;19.030;2023-01-29T07:03:58;102566.78;;;-1.42;76.24
33949;BME280;20229;49.856;19.030;2023-01-29T07:09:03;102560.62;;;-1.38;75.93
33949;BME280;20229;49.856;19.030;2023-01-29T07:14:24;102569.55;;;-1.39;75.93
33949;BME280;20229;49.856;19.030;2023-01-29T07:19:28;102577.67;;;-1.35;76.50
33949;BME280;20229;49.856;19.030;2023-01-29T07:24:50;102584.81;;;-1.35;76.43
33949;BME280;20229;49.856;19.030;2023-01-29T07:29:54;102578.64;;;-1.31;75.83
33949;BME280;20229;49.856;19.030;2023-01-29T07:35:16;102589.36;;;-1.31;75.74
33949;BME280;20229;49.856;19.030;2023-01-29T07:40:19;102584.98;;;-1.28;76.08
33949;BME280;20229;49.856;19.030;2023-01-29T07:45:41;102575.13;;;-1.30;75.85
33949;BME280;20229;49.856;19.030;2023-01-29T07:50:53;102582.35;;;-1.26;75.34
33949;BME280;20229;49.856;19.030;2023-01-29T07:56:07;102585.02;;;-1.26;75.79
33949;BME280;20229;49.856;19.030;2023-01-29T08:01:10;102591.34;;;-1.23;75.52
33949;BME280;20229;49.856;19.030;2023-01-29T08:06:33;102594.94;;;-1.22;75.39
33949;BME280;20229;49.856;19.030;2023-01-29T08:11:36;102595.02;;;-1.19;75.87
33949;BME280;20229;49.856;19.030;2023-01-29T08:16:59;102603.05;;;-1.19;75.71
33949;BME280;20229;49.856;19.030;2023-01-29T08:22:03;102609.40;;;-1.14;75.58
33949;BME280;20229;49.856;19.030;2023-01-29T08:27:25;102613.85;;;-1.14;75.41
33949;BME280;20229;49.856;19.030;2023-01-29T08:32:28;102620.36;;;-1.03;75.51
33949;BME280;20229;49.856;19.030;2023-01-29T08:37:59;102626.32;;;-0.76;75.20
33949;BME280;20229;49.856;19.030;2023-01-29T08:43:05;102624.05;;;-0.56;74.21
33949;BME280;20229;49.856;19.030;2023-01-29T08:48:16;102630.52;;;-0.44;73.81
33949;BME280;20229;49.856;19.030;2023-01-29T08:53:19;102632.74;;;-0.22;73.32
33949;BME280;20229;49.856;19.030;2023-01-29T08:58:42;102624.09;;;-0.06;72.92
33949;BME280;20229;49.856;19.030;2023-01-29T09:03:46;102627.04;;;0.10;72.68
33949;BME280;20229;49.856;19.030;2023-01-29T09:09:07;102631.09;;;0.36;71.70
33949;BME280;20229;49.856;19.030;2023-01-29T09:14:11;102623.98;;;0.41;71.35
33949;BME280;20229;49.856;19.030;2023-01-29T09:19:33;102633.50;;;0.21;71.01
33949;BME280;20229;49.856;19.030;2023-01-29T09:24:36;102627.93;;;0.09;70.94
33949;BME280;20229;49.856;19.030;2023-01-29T09:29:59;102636.76;;;0.02;71.79
33949;BME280;20229;49.856;19.030;2023-01-29T09:35:03;102613.55;;;0.07;71.89
33949;BME280;20229;49.856;19.030;2023-01-29T09:45:39;102586.09;;;0.23;72.06
33949;BME280;20229;49.856;19.030;2023-01-29T09:50:52;102578.82;;;0.16;71.87
33949;BME280;20229;49.856;19.030;2023-01-29T09:56:24;102583.35;;;0.20;72.10
33949;BME280;20229;49.856;19.030;2023-01-29T10:12:01;102581.51;;;0.17;72.59
33949;BME280;20229;49.856;19.030;2023-01-29T10:27:39;102543.49;;;0.49;72.10
33949;BME280;20229;49.856;19.030;2023-01-29T10:32:44;102528.30;;;0.50;71.29
33949;BME280;20229;49.856;19.030;2023-01-29T10:37:51;102521.09;;;0.48;71.53
33949;BME280;20229;49.856;19.030;2023-01-29T10:53:46;102491.34;;;0.33;70.74
33949;BME280;20229;49.856;19.030;2023-01-29T10:59:00;102483.23;;;0.30;70.07
33949;BME280;20229;49.856;19.030;2023-01-29T11:04:05;102478.71;;;0.28;70.04
33949;BME280;20229;49.856;19.030;2023-01-29T11:14:31;102451.13;;;0.42;70.52
33949;BME280;20229;49.856;19.030;2023-01-29T11:19:39;102437.80;;;0.48;69.14
33949;BME280;20229;49.856;19.030;2023-01-29T11:24:43;102428.92;;;0.54;69.31
33949;BME280;20229;49.856;19.030;2023-01-29T11:29:47;102424.48;;;0.58;68.50
33949;BME280;20229;49.856;19.030;2023-01-29T11:40:32;102407.55;;;0.66;68.89
33949;BME280;20229;49.856;19.030;2023-01-29T11:45:37;102400.38;;;0.67;68.92
33949;BME280;20229;49.856;19.030;2023-01-29T11:50:43;102386.16;;;0.76;68.96
33949;BME280;20229;49.856;19.030;2023-01-29T11:55:59;102371.86;;;0.78;68.34
33949;BME280;20229;49.856;19.030;2023-01-29T12:01:04;102369.32;;;0.93;67.88
33949;BME280;20229;49.856;19.030;2023-01-29T12:06:32;102370.24;;;0.95;67.12
33949;BME280;20229;49.856;19.030;2023-01-29T12:11:36;102369.32;;;0.93;67.22
33949;BME280;20229;49.856;19.030;2023-01-29T12:16:59;102381.77;;;0.82;68.40
33949;BME280;20229;49.856;19.030;2023-01-29T12:22:15;102382.58;;;0.75;68.02
33949;BME280;20229;49.856;19.030;2023-01-29T12:27:28;102379.81;;;0.69;68.50
33949;BME280;20229;49.856;19.030;2023-01-29T12:32:43;102383.36;;;0.65;68.08
33949;BME280;20229;49.856;19.030;2023-01-29T12:37:58;102361.78;;;0.59;67.59
33949;BME280;20229;49.856;19.030;2023-01-29T12:43:14;102377.00;;;0.58;66.39
33949;BME280;20229;49.856;19.030;2023-01-29T12:58:50;102360.17;;;0.76;67.85
33949;BME280;20229;49.856;19.030;2023-01-29T13:04:00;102349.56;;;0.88;66.70
33949;BME280;20229;49.856;19.030;2023-01-29T13:09:07;102346.91;;;0.93;67.65
33949;BME280;20229;49.856;19.030;2023-01-29T13:19:35;102351.25;;;0.80;67.04
33949;BME280;20229;49.856;19.030;2023-01-29T13:24:40;102338.66;;;0.78;67.60
33949;BME280;20229;49.856;19.030;2023-01-29T13:29:51;102339.54;;;0.74;67.70
33949;BME280;20229;49.856;19.030;2023-01-29T13:35:02;102328.85;;;0.81;67.48
33949;BME280;20229;49.856;19.030;2023-01-29T13:40:24;102333.33;;;0.79;67.87
33949;BME280;20229;49.856;19.030;2023-01-29T13:45:35;102316.31;;;0.80;67.92
33949;BME280;20229;49.856;19.030;2023-01-29T13:50:44;102330.51;;;0.67;67.44
33949;BME280;20229;49.856;19.030;2023-01-29T13:55:48;102322.51;;;0.71;66.68
33949;BME280;20229;49.856;19.030;2023-01-29T14:01:08;102333.08;;;0.55;67.45
33949;BME280;20229;49.856;19.030;2023-01-29T14:11:34;102314.03;;;0.33;67.52
33949;BME280;20229;49.856;19.030;2023-01-29T14:16:38;102318.44;;;0.28;67.66
33949;BME280;20229;49.856;19.030;2023-01-29T14:21:59;102317.40;;;0.15;67.62
33949;BME280;20229;49.856;19.030;2023-01-29T14:27:03;102312.85;;;0.08;67.76
33949;BME280;20229;49.856;19.030;2023-01-29T14:32:26;102312.71;;;-0.03;67.65
33949;BME280;20229;49.856;19.030;2023-01-29T14:37:33;102292.04;;;-0.08;68.74
33949;BME280;20229;49.856;19.030;2023-01-29T14:42:59;102286.49;;;-0.22;68.49
33949;BME280;20229;49.856;19.030;2023-01-29T14:58:41;102297.78;;;-0.47;68.87
33949;BME280;20229;49.856;19.030;2023-01-29T15:03:48;102305.66;;;-0.60;68.72
33949;BME280;20229;49.856;19.030;2023-01-29T15:09:02;102309.14;;;-0.67;68.61
33949;BME280;20229;49.856;19.030;2023-01-29T15:14:21;102301.82;;;-0.77;69.14
33949;BME280;20229;49.856;19.030;2023-01-29T15:19:31;102288.36;;;-0.80;69.31
33949;BME280;20229;49.856;19.030;2023-01-29T15:24:38;102279.31;;;-0.87;69.16
33949;BME280;20229;49.856;19.030;2023-01-29T15:29:46;102272.12;;;-0.89;69.53
33949;BME280;20229;49.856;19.030;2023-01-29T15:35:15;102258.59;;;-0.99;69.84
33949;BME280;20229;49.856;19.030;2023-01-29T15:40:15;102252.23;;;-1.04;70.22
33949;BME280;20229;49.856;19.030;2023-01-29T15:45:30;102250.37;;;-1.09;70.54
33949;BME280;20229;49.856;19.030;2023-01-29T15:50:38;102245.92;;;-1.07;70.53
33949;BME280;20229;49.856;19.030;2023-01-29T15:55:51;102241.41;;;-1.10;70.56
33949;BME280;20229;49.856;19.030;2023-01-29T16:00:59;102246.77;;;-1.10;70.89
33949;BME280;20229;49.856;19.030;2023-01-29T16:06:22;102236.76;;;-1.22;70.97
33949;BME280;20229;49.856;19.030;2023-01-29T16:11:26;102232.46;;;-1.12;71.06
33949;BME280;20229;49.856;19.030;2023-01-29T16:16:46;102226.09;;;-1.20;71.02
33949;BME280;20229;49.856;19.030;2023-01-29T16:22:00;102231.34;;;-1.25;71.23
33949;BME280;20229;49.856;19.030;2023-01-29T16:27:13;102230.27;;;-1.37;71.57
33949;BME280;20229;49.856;19.030;2023-01-29T16:32:19;102229.31;;;-1.41;71.82
33949;BME280;20229;49.856;19.030;2023-01-29T16:37:38;102238.12;;;-1.48;71.89
33949;BME280;20229;49.856;19.030;2023-01-29T16:42:41;102231.80;;;-1.52;71.99
33949;BME280;20229;49.856;19.030;2023-01-29T16:53:20;102239.67;;;-1.59;72.44
33949;BME280;20229;49.856;19.030;2023-01-29T16:58:30;102238.70;;;-1.66;72.58
33949;BME280;20229;49.856;19.030;2023-01-29T17:03:35;102230.66;;;-1.66;72.52
33949;BME280;20229;49.856;19.030;2023-01-29T17:08:56;102225.12;;;-1.75;72.80
33949;BME280;20229;49.856;19.030;2023-01-29T17:13:59;102221.49;;;-1.79;72.92
33949;BME280;20229;49.856;19.030;2023-01-29T17:19:21;102222.17;;;-1.90;73.41
33949;BME280;20229;49.856;19.030;2023-01-29T17:24:27;102231.88;;;-1.96;73.66
33949;BME280;20229;49.856;19.030;2023-01-29T17:29:47;102236.12;;;-2.07;73.95
33949;BME280;20229;49.856;19.030;2023-01-29T17:34:51;102246.70;;;-2.13;74.22
33949;BME280;20229;49.856;19.030;2023-01-29T17:45:31;102237.55;;;-2.24;75.19
33949;BME280;20229;49.856;19.030;2023-01-29T17:50:39;102236.52;;;-2.31;75.35
33949;BME280;20229;49.856;19.030;2023-01-29T17:55:46;102229.46;;;-2.27;75.42
33949;BME280;20229;49.856;19.030;2023-01-29T18:01:04;102217.86;;;-2.28;75.71
33949;BME280;20229;49.856;19.030;2023-01-29T18:06:08;102208.33;;;-2.15;75.80
33949;BME280;20229;49.856;19.030;2023-01-29T18:11:30;102209.35;;;-2.08;75.93
33949;BME280;20229;49.856;19.030;2023-01-29T18:16:34;102188.14;;;-1.98;75.68
33949;BME280;20229;49.856;19.030;2023-01-29T18:21:56;102189.11;;;-1.93;75.47
33949;BME280;20229;49.856;19.030;2023-01-29T18:27:00;102188.41;;;-1.82;74.91
33949;BME280;20229;49.856;19.030;2023-01-29T18:32:22;102187.59;;;-1.78;74.97
33949;BME280;20229;49.856;19.030;2023-01-29T18:37:25;102194.91;;;-1.70;75.02
33949;BME280;20229;49.856;19.030;2023-01-29T18:42:48;102202.95;;;-1.68;75.26
33949;BME280;20229;49.856;19.030;2023-01-29T18:47:51;102195.08;;;-1.59;75.28
33949;BME280;20229;49.856;19.030;2023-01-29T18:53:14;102178.19;;;-1.55;75.05
33949;BME280;20229;49.856;19.030;2023-01-29T18:58:17;102168.48;;;-1.48;74.79
33949;BME280;20229;49.856;19.030;2023-01-29T19:03:40;102178.31;;;-1.46;74.97
33949;BME280;20229;49.856;19.030;2023-01-29T19:08:44;102171.33;;;-1.37;74.61
33949;BME280;20229;49.856;19.030;2023-01-29T19:14:05;102173.18;;;-1.33;74.32
33949;BME280;20229;49.856;19.030;2023-01-29T19:19:09;102159.00;;;-1.26;74.13
33949;BME280;20229;49.856;19.030;2023-01-29T19:24:31;102153.69;;;-1.23;73.98
33949;BME280;20229;49.856;19.030;2023-01-29T19:29:40;102135.93;;;-1.16;74.27
33949;BME280;20229;49.856;19.030;2023-01-29T19:34:57;102141.30;;;-1.15;73.87
33949;BME280;20229;49.856;19.030;2023-01-29T19:40:00;102128.90;;;-1.07;73.91
33949;BME280;20229;49.856;19.030;2023-01-29T19:45:23;102128.05;;;-1.06;73.84
33949;BME280;20229;49.856;19.030;2023-01-29T19:50:28;102116.53;;;-0.99;73.63
33949;BME280;20229;49.856;19.030;2023-01-29T20:01:11;102112.12;;;-0.92;73.94
33949;BME280;20229;49.856;19.030;2023-01-29T20:06:17;102116.57;;;-0.94;73.89
33949;BME280;20229;49.856;19.030;2023-01-29T20:11:21;102114.88;;;-0.87;73.99
33949;BME280;20229;49.856;19.030;2023-01-29T20:16:40;102097.00;;;-0.87;73.83
33949;BME280;20229;49.856;19.030;2023-01-29T20:21:45;102082.71;;;-0.87;73.88
33949;BME280;20229;49.856;19.030;2023-01-29T20:27:06;102088.07;;;-0.86;73.76
33949;BME280;20229;49.856;19.030;2023-01-29T20:32:09;102082.75;;;-0.84;73.65
33949;BME280;20229;49.856;19.030;2023-01-29T20:37:32;102076.41;;;-0.89;73.92
33949;BME280;20229;49.856;19.030;2023-01-29T20:43:11;102061.22;;;-0.90;73.84
33949;BME280;20229;49.856;19.030;2023-01-29T20:48:37;102063.91;;;-0.89;74.22
33949;BME280;20229;49.856;19.030;2023-01-29T20:53:43;102057.73;;;-0.83;74.08
33949;BME280;20229;49.856;19.030;2023-01-29T20:59:02;102067.56;;;-0.82;74.43
33949;BME280;20229;49.856;19.030;2023-01-29T21:04:06;102060.49;;;-0.77;74.27
33949;BME280;20229;49.856;19.030;2023-01-29T21:09:28;102059.61;;;-0.76;74.69
33949;BME280;20229;49.856;19.030;2023-01-29T21:14:32;102059.68;;;-0.70;74.91
33949;BME280;20229;49.856;19.030;2023-01-29T21:19:54;102048.95;;;-0.70;75.02
33949;BME280;20229;49.856;19.030;2023-01-29T21:24:58;102049.00;;;-0.64;75.31
33949;BME280;20229;49.856;19.030;2023-01-29T21:30:20;102041.84;;;-0.65;75.14
33949;BME280;20229;49.856;19.030;2023-01-29T21:35:24;102017.73;;;-0.62;75.29
33949;BME280;20229;49.856;19.030;2023-01-29T21:40:46;102013.27;;;-0.63;75.30
33949;BME280;20229;49.856;19.030;2023-01-29T21:45:54;101998.12;;;-0.59;75.54
33949;BME280;20229;49.856;19.030;2023-01-29T21:51:13;101999.90;;;-0.60;75.43
33949;BME280;20229;49.856;19.030;2023-01-29T21:56:16;101986.48;;;-0.57;75.38
33949;BME280;20229;49.856;19.030;2023-01-29T22:01:39;101968.58;;;-0.61;75.23
33949;BME280;20229;49.856;19.030;2023-01-29T22:06:42;101957.88;;;-0.58;75.42
33949;BME280;20229;49.856;19.030;2023-01-29T22:12:06;101944.45;;;-0.61;75.73
33949;BME280;20229;49.856;19.030;2023-01-29T22:17:10;101946.26;;;-0.58;75.70
33949;BME280;20229;49.856;19.030;2023-01-29T22:22:31;101934.60;;;-0.62;75.88
33949;BME280;20229;49.856;19.030;2023-01-29T22:27:34;101929.28;;;-0.59;76.02
33949;BME280;20229;49.856;19.030;2023-01-29T22:32:57;101918.52;;;-0.62;76.14
33949;BME280;20229;49.856;19.030;2023-01-29T22:38:00;101911.39;;;-0.58;76.04
33949;BME280;20229;49.856;19.030;2023-01-29T22:43:23;101898.85;;;-0.61;76.21
33949;BME280;20229;49.856;19.030;2023-01-29T22:48:27;101889.05;;;-0.59;76.34
33949;BME280;20229;49.856;19.030;2023-01-29T22:53:51;101889.91;;;-0.63;76.46
33949;BME280;20229;49.856;19.030;2023-01-29T22:58:56;101874.73;;;-0.59;76.42
33949;BME280;20229;49.856;19.030;2023-01-29T23:04:15;101880.97;;;-0.62;76.68
33949;BME280;20229;49.856;19.030;2023-01-29T23:09:19;101869.38;;;-0.59;76.91
33949;BME280;20229;49.856;19.030;2023-01-29T23:14:41;101863.99;;;-0.62;77.05
33949;BME280;20229;49.856;19.030;2023-01-29T23:19:45;101855.94;;;-0.61;77.01
33949;BME280;20229;49.856;19.030;2023-01-29T23:25:08;101849.66;;;-0.66;77.16
33949;BME280;20229;49.856;19.030;2023-01-29T23:30:12;101844.29;;;-0.66;77.23
33949;BME280;20229;49.856;19.030;2023-01-29T23:35:33;101838.88;;;-0.74;77.29
33949;BME280;20229;49.856;19.030;2023-01-29T23:40:36;101832.56;;;-0.80;77.21
33949;BME280;20229;49.856;19.030;2023-01-29T23:45:59;101812.81;;;-0.91;77.36
33949;BME280;20229;49.856;19.030;2023-01-29T23:51:03;101794.88;;;-0.96;77.39
33949;BME280;20229;49.856;19.030;2023-01-29T23:56:25;101779.61;;;-1.09;77.37
